Weather observations for the past three days for
Giddings, Giddings-Lee County Airport
| Date | Time (cdt) | Wind (kph) | Vis. (km) | Weather | Sky Cond. | Temperature (ºC) | Relative Humidity | Wind Chill (°C) | Heat Index (°C) | Pressure | Precipitation (cm) | ||||||
|---|---|---|---|---|---|---|---|---|---|---|---|---|---|---|---|---|---|
| Air | Dwpt | 6 hour | altimeter (cm) | sea level (mb) | 1 hr | 3 hr | 6 hr | ||||||||||
| Max. | Min. | ||||||||||||||||
| 07 | 13:55 | E 13 | 16.09 | Fair | CLR | 20.5 | 13.2 | 63% | 76.3 | 0.0 | |||||||
| 07 | 13:35 | E 19 G 30 | 16.09 | Fair | CLR | 20.4 | 13.2 | 63% | 76.33 | 0.0 | |||||||
| 07 | 13:15 | E 19 | 16.09 | Partly Cloudy | SCT039 | 19.5 | 12.9 | 66% | 76.33 | 0.0 | |||||||
| 07 | 12:55 | NE 7 | 16.09 | Mostly Cloudy | SCT033 BKN039 BKN046 | 18.4 | 12.4 | 18.4 | 14.6 | 68% | 76.4 | 0.0 | |||||
| 07 | 12:35 | N 11 | 16.09 | Overcast | OVC033 | 17.2 | 11.8 | 71% | 76.45 | 0.0 | |||||||
| 07 | 12:15 | N 11 | 16.09 | Overcast | OVC031 | 16.9 | 11.7 | 72% | 76.48 | 0.0 | |||||||
| 07 | 11:55 | N 11 | 16.09 | Overcast | OVC029 | 16.5 | 11.7 | 73% | 76.45 | 0.0 | |||||||
| 07 | 11:35 | NE 9 | 16.09 | Overcast | OVC029 | 16.1 | 11.7 | 75% | 76.45 | 0.0 | |||||||
| 07 | 11:15 | N 19 | 16.09 | Overcast | OVC031 | 15.6 | 11.5 | 77% | 76.45 | 0.0 | |||||||
| 07 | 10:55 | N 17 | 16.09 | Overcast | SCT014 OVC031 | 15.6 | 11.8 | 78% | 76.45 | 0.0 | |||||||
| 07 | 10:35 | N 17 G 26 | 16.09 | Overcast | SCT014 BKN027 OVC034 | 15.3 | 11.6 | 79% | 76.43 | 0.0 | |||||||
| 07 | 10:15 | N 20 | 16.09 | Overcast | BKN014 OVC034 | 15 | 11.6 | 80% | 76.38 | 0.0 | |||||||
| 07 | 09:55 | N 7 | 16.09 | Overcast | OVC014 | 14.8 | 11.6 | 81% | 76.45 | 0.0 | |||||||
| 07 | 09:35 | NE 9 | 16.09 | Overcast | OVC014 | 14.7 | 11.5 | 81% | 76.43 | 0.0 | |||||||
| 07 | 09:15 | N 20 G 30 | 16.09 | Overcast | OVC014 | 15 | 11.7 | 81% | 76.4 | 0.0 | |||||||
| 07 | 08:55 | N 15 G 28 | 16.09 | Overcast | OVC014 | 14.8 | 11.6 | 81% | 76.4 | 0.0 | |||||||
| 07 | 08:35 | N 19 | 16.09 | Overcast | OVC012 | 14.8 | 11.8 | 82% | 76.4 | 0.0 | |||||||
| 07 | 08:15 | N 15 | 16.09 | Overcast | OVC012 | 15 | 12 | 82% | 76.4 | 0.0 | |||||||
| 07 | 07:55 | N 17 G 33 | 16.09 | Overcast | OVC012 | 14.8 | 12 | 83% | 76.38 | 0.0 | |||||||
| 07 | 07:35 | N 9 G 15 | 16.09 | Overcast | OVC012 | 14.7 | 12.3 | 86% | 76.38 | 0.0 | |||||||
| 07 | 07:15 | N 17 G 30 | 8.05 | Fog/Mist | OVC010 | 14.7 | 12.8 | 88% | 76.35 | 0.0 | |||||||
| 07 | 06:55 | N 22 G 31 | 11.27 | Overcast | OVC008 | 15.1 | 13.2 | 16.6 | 15.1 | 89% | 76.33 | 0.0 | |||||
| 07 | 06:35 | N 13 G 30 | 16.09 | Overcast | OVC008 | 15.5 | 13.5 | 88% | 76.33 | 0.0 | |||||||
| 07 | 06:15 | N 13 G 26 | 16.09 | Overcast | OVC008 | 15.5 | 13.5 | 88% | 76.28 | 0.0 | |||||||
| 07 | 05:55 | N 15 | 11.27 | Overcast | OVC008 | 15.5 | 13.7 | 89% | 76.3 | 0.0 | |||||||
| 07 | 05:35 | N 17 G 31 | 11.27 | Overcast | OVC008 | 15.5 | 13.6 | 89% | 76.23 | 0.0 | |||||||
| 07 | 05:15 | N 11 | 16.09 | Overcast | OVC010 | 15.9 | 13.6 | 86% | 76.25 | 0.0 | |||||||
| 07 | 04:55 | N 13 | 16.09 | Overcast | OVC010 | 16 | 13.7 | 86% | 76.23 | 0.0 | |||||||
| 07 | 04:35 | N 9 | 16.09 | Overcast | OVC010 | 16 | 13.7 | 86% | 76.23 | 0.0 | |||||||
| 07 | 04:15 | N 9 | 16.09 | Overcast | OVC012 | 16.1 | 13.6 | 85% | 76.2 | 0.0 | |||||||
| 07 | 03:55 | N 9 | 16.09 | Overcast | OVC012 | 16.3 | 13.6 | 84% | 76.2 | 0.0 | |||||||
| 07 | 03:35 | N 9 | 16.09 | Overcast | OVC014 | 16.2 | 13.5 | 84% | 76.2 | 0.0 | |||||||
| 07 | 03:15 | NE 7 | 16.09 | Overcast | OVC014 | 16.3 | 13.6 | 84% | 76.17 | 0.0 | |||||||
| 07 | 02:55 | NE 7 | 16.09 | Overcast | BKN014 OVC028 | 16.3 | 13.5 | 84% | 76.17 | 0.0 | |||||||
| 07 | 02:15 | N 7 | 16.09 | Overcast | OVC016 | 16.3 | 13.5 | 84% | 76.2 | 0.0 | |||||||
| 07 | 01:55 | NE 9 | 16.09 | Overcast | BKN016 OVC028 | 16.3 | 13.3 | 83% | 76.17 | 0.0 | |||||||
| 07 | 01:35 | NE 13 | 16.09 | Overcast | SCT016 OVC028 | 16.3 | 13.2 | 82% | 76.17 | 0.0 | |||||||
| 07 | 01:15 | NE 13 | 16.09 | Overcast | SCT016 OVC028 | 16.5 | 13.1 | 80% | 76.2 | 0.0 | |||||||
| 07 | 00:55 | NE 20 G 28 | 16.09 | Overcast | OVC028 | 16.6 | 13 | 18.2 | 16.6 | 79% | 76.2 | 0.0 | |||||
| 07 | 00:35 | NE 6 G 26 | 16.09 | Overcast | OVC026 | 16.7 | 13.1 | 79% | 76.23 | 0.0 | |||||||
| 07 | 00:15 | N 15 G 28 | 16.09 | Overcast | OVC024 | 16.8 | 13.2 | 79% | 76.2 | 0.0 | |||||||
| 06 | 23:55 | N 19 G 28 | 16.09 | Overcast | OVC022 | 16.9 | 13.2 | 79% | 76.17 | 0.0 | |||||||
| 06 | 23:35 | N 17 G 26 | 16.09 | Overcast | OVC022 | 16.8 | 13.2 | 79% | 76.2 | 0.0 | |||||||
| 06 | 23:15 | N 15 G 26 | 16.09 | Overcast | OVC020 | 17 | 13.2 | 78% | 76.2 | 0.0 | |||||||
| 06 | 22:55 | N 22 G 30 | 16.09 | Overcast | OVC020 | 17 | 13.1 | 78% | 76.15 | 0.0 | |||||||
| 06 | 22:35 | N 17 G 26 | 16.09 | Overcast | OVC020 | 17 | 13.1 | 78% | 76.17 | 0.0 | |||||||
| 06 | 22:15 | N 19 G 30 | 16.09 | Overcast | OVC020 | 17.1 | 13.5 | 80% | 76.15 | 0.0 | |||||||
| 06 | 21:55 | N 22 | 16.09 | Overcast | OVC020 | 17.2 | 13.5 | 79% | 76.15 | 0.0 | |||||||
| 06 | 21:35 | N 17 | 16.09 | Overcast | OVC020 | 17.2 | 13.5 | 79% | 76.12 | 0.0 | |||||||
| 06 | 21:15 | N 11 | 16.09 | Overcast | OVC018 | 17 | 13.5 | 80% | 76.1 | 0.0 | |||||||
| 06 | 20:55 | N 13 G 26 | 16.09 | Overcast | OVC016 | 17.2 | 13.5 | 79% | 76.07 | 0.0 | |||||||
| 06 | 20:35 | N 13 G 28 | 16.09 | Overcast | OVC016 | 17.4 | 13.5 | 78% | 76.02 | 0.0 | |||||||
| 06 | 20:15 | N 19 G 26 | 16.09 | Overcast | OVC016 | 17.5 | 13.6 | 78% | 76.02 | 0.0 | |||||||
| 06 | 19:55 | N 13 | 16.09 | Overcast | OVC016 | 17.5 | 13.5 | 78% | 76 | 0.0 | |||||||
| 06 | 19:35 | N 15 G 26 | 16.09 | Overcast | OVC016 | 17.6 | 13.5 | 77% | 76 | 0.0 | |||||||
| 06 | 19:15 | N 13 | 16.09 | Overcast | OVC018 | 17.9 | 13.5 | 76% | 75.97 | 0.0 | |||||||
| 06 | 18:55 | N 19 G 30 | 16.09 | Overcast | OVC020 | 18.3 | 13.7 | 25.9 | 18.3 | 75% | 75.97 | 0.0 | |||||
| 06 | 18:35 | N 15 | 16.09 | Overcast | OVC020 | 18.9 | 14 | 73% | 75.95 | 0.0 | |||||||
| 06 | 18:15 | N 15 G 30 | 16.09 | Overcast | OVC022 | 19.5 | 14.1 | 71% | 75.92 | 0.0 | |||||||
| 06 | 17:55 | N 19 G 28 | 16.09 | Mostly Cloudy | BKN022 BKN040 | 20 | 14.3 | 70% | 75.92 | 0.0 | |||||||
| 06 | 17:35 | N 19 G 28 | 16.09 | Partly Cloudy | SCT021 SCT032 SCT050 | 20.5 | 14.6 | 69% | 75.9 | 0.0 | |||||||
| 06 | 17:15 | N 26 G 31 | 16.09 | Overcast | SCT023 BKN032 OVC050 | 20.9 | 15 | 69% | 75.9 | 0.0 | |||||||
| 06 | 16:55 | N 20 G 37 | 16.09 | Overcast | BKN025 OVC030 | 21.2 | 15.4 | 70% | 75.9 | 0.0 | |||||||
| 06 | 16:35 | N 24 G 37 | 16.09 | Overcast | OVC021 | 21.2 | 15.7 | 71% | 75.9 | 0.0 | |||||||
| 06 | 16:15 | N 24 G 39 | 16.09 | Overcast | OVC021 | 22 | 16.9 | 73% | 75.9 | 0.0 | |||||||
| 06 | 15:55 | N 22 G 35 | 16.09 | Overcast | OVC021 | 22.9 | 17.8 | 73% | 75.9 | 0.0 | |||||||
| 06 | 15:35 | N 11 | 16.09 | Mostly Cloudy | BKN021 BKN032 BKN039 | 25.3 | 20.1 | 73% | 26 | 75.87 | 0.0 | ||||||
| 06 | 15:15 | N 15 | 16.09 | Partly Cloudy | SCT039 | 25.7 | 20.3 | 72% | 27 | 75.87 | 0.0 | ||||||
| 06 | 14:55 | N 17 | 16.09 | Partly Cloudy | SCT036 SCT042 | 25.4 | 20.3 | 73% | 27 | 75.87 | 0.0 | ||||||
| 06 | 14:35 | N 13 | 16.09 | Mostly Cloudy | BKN016 BKN028 BKN036 | 25 | 20 | 74% | 26 | 75.87 | 0.0 | ||||||
| 06 | 14:15 | N 9 | 16.09 | Mostly Cloudy | BKN016 BKN036 | 23.8 | 19.6 | 77% | 75.9 | 0.0 | |||||||
| 06 | 13:55 | N 7 | 16.09 | Fair | CLR | 23.6 | 19.6 | 78% | 75.87 | 0.0 | |||||||
| 06 | 13:35 | E 11 | 16.09 | Fair | CLR | 22.9 | 19.6 | 82% | 75.87 | 0.0 | |||||||
| 06 | 13:15 | NE 9 | 11.27 | Partly Cloudy | SCT007 SCT080 | 21.6 | 18.8 | 84% | 75.9 | 0.0 | |||||||
| 06 | 12:55 | NE 9 | 11.27 | Mostly Cloudy | BKN007 BKN010 BKN017 | 19.8 | 17.5 | 25 | 17.7 | 87% | 75.92 | 0.0 | 0.03 | ||||
| 06 | 12:35 | N 15 | 11.27 | Overcast | OVC007 | 18.1 | 16.5 | 90% | 75.97 | 0.0 | |||||||
| 06 | 12:15 | N 22 G 31 | 11.27 | Overcast | OVC007 | 18 | 16.7 | 92% | 75.97 | 0.0 | |||||||
| 06 | 11:55 | N 28 G 41 | 6.44 | Light Rain | BKN007 OVC037 | 18.9 | 17.4 | 91% | 76.02 | 0.0 | 0.03 | ||||||
| 06 | 11:35 | Calm | 6.44 | Drizzle | SCT009 BKN033 OVC048 | 25 | 23.1 | 89% | 26 | 76 | 0.0 | 0.03 | |||||
| 06 | 11:15 | Calm | 4.83 | Light Rain | SCT009 BKN039 OVC050 | 24.7 | 23.1 | 91% | 25 | 75.97 | 0.0 | 0.03 | |||||
| 06 | 10:55 | Calm | 6.44 | Rain | SCT011 SCT028 OVC038 | 24.6 | 23 | 91% | 25 | 75.95 | 0.0 | ||||||
| 06 | 10:35 | Calm | 6.44 | Fog/Mist | SCT009 BKN029 OVC035 | 24.7 | 23 | 90% | 25 | 75.92 | 0.0 | ||||||
| 06 | 10:15 | E 6 | 6.44 | Fog/Mist | SCT010 BKN017 OVC036 | 24.6 | 23 | 91% | 25 | 75.87 | 0.0 | ||||||
| 06 | 09:55 | Calm | 4.02 | Drizzle | BKN010 OVC017 | 24.4 | 23.1 | 93% | 24 | 75.87 | 0.0 | ||||||
| 06 | 09:35 | Calm | 6.44 | Fog/Mist | OVC010 | 24.2 | 22.6 | 91% | 24 | 75.9 | 0.0 | ||||||
| 06 | 09:15 | Calm | 6.44 | Fog/Mist | OVC010 | 24 | 22.7 | 92% | 23 | 75.84 | 0.0 | ||||||
| 06 | 08:55 | Calm | 4.83 | Fog/Mist | OVC010 | 23.8 | 22.8 | 94% | 75.82 | 0.0 | |||||||
| 06 | 08:35 | Calm | 4.83 | Rain | OVC010 | 23.7 | 22.6 | 94% | 75.82 | 0.0 | |||||||
| 06 | 08:15 | Calm | 4.83 | Fog/Mist | SCT012 BKN016 OVC041 | 23.6 | 22.5 | 94% | 75.82 | 0.0 | |||||||
| 06 | 07:55 | Calm | 4.83 | Light Rain | SCT012 BKN043 OVC048 | 23.6 | 22.5 | 94% | 75.82 | 0.0 | |||||||
| 06 | 07:35 | Calm | 4.83 | Fog/Mist | BKN012 BKN019 OVC038 | 23.5 | 22.4 | 94% | 75.82 | 0.0 | |||||||
| 06 | 07:15 | Calm | 6.44 | Fog/Mist | OVC010 | 23.5 | 22.2 | 92% | 75.82 | 0.0 | |||||||
| 06 | 06:55 | Calm | 6.44 | Fog/Mist | BKN010 OVC014 | 23.5 | 22.2 | 23.8 | 23.3 | 92% | 75.79 | 0.0 | |||||
| 06 | 06:35 | Calm | 8.05 | Fog/Mist | OVC010 | 23.6 | 22.1 | 91% | 75.79 | 0.0 | |||||||
| 06 | 05:55 | Calm | 8.05 | Fog/Mist | OVC010 | 23.7 | 22.1 | 91% | 75.77 | 0.0 | |||||||
| 06 | 05:35 | Calm | 11.27 | Overcast | OVC010 | 23.8 | 22.1 | 90% | 75.77 | 0.0 | |||||||
| 06 | 05:15 | SW 11 | 11.27 | Overcast | OVC010 | 23.8 | 22.1 | 90% | 75.74 | 0.0 | |||||||
| 06 | 04:55 | S 11 | 11.27 | Overcast | OVC010 | 23.7 | 22.1 | 91% | 75.72 | 0.0 | |||||||
| 06 | 04:35 | S 7 | 8.05 | Fog/Mist | OVC008 | 23.7 | 22.2 | 91% | 75.72 | 0.0 | |||||||
| 06 | 04:15 | S 9 | 8.05 | Fog/Mist | OVC008 | 23.6 | 22.2 | 92% | 75.69 | 0.0 | |||||||
| 06 | 03:55 | S 11 | 8.05 | Fog/Mist | OVC008 | 23.5 | 22.2 | 92% | 75.69 | 0.0 | |||||||
| 06 | 03:35 | S 6 | 8.05 | Fog/Mist | OVC008 | 23.5 | 22.2 | 92% | 75.69 | 0.0 | |||||||
| 06 | 03:15 | S 7 | 8.05 | Fog/Mist | OVC008 | 23.5 | 22.2 | 92% | 75.69 | 0.0 | |||||||
| 06 | 02:55 | S 9 | 8.05 | Fog/Mist | OVC008 | 23.4 | 22.2 | 93% | 75.69 | 0.0 | |||||||
| 06 | 02:35 | S 11 | 8.05 | Fog/Mist | OVC008 | 23.3 | 22.2 | 94% | 75.72 | 0.0 | |||||||
| 06 | 02:15 | S 15 | 8.05 | Fog/Mist | OVC008 | 23.3 | 22.2 | 94% | 75.72 | 0.0 | |||||||
| 06 | 01:55 | S 13 | 8.05 | Fog/Mist | OVC010 | 23.5 | 22.2 | 92% | 75.74 | 0.0 | |||||||
| 06 | 01:35 | S 9 | 8.05 | Fog/Mist | OVC010 | 23.4 | 22.1 | 92% | 75.74 | 0.0 | |||||||
| 06 | 01:15 | S 7 | 11.27 | Overcast | OVC010 | 23.5 | 22.1 | 92% | 75.74 | 0.0 | |||||||
| 06 | 00:55 | S 7 | 11.27 | Overcast | OVC010 | 23.7 | 22.2 | 27.5 | 23.6 | 91% | 75.74 | 0.0 | |||||
| 06 | 00:15 | S 7 | 11.27 | Mostly Cloudy | BKN012 | 23.6 | 22.1 | 91% | 75.74 | 0.0 | |||||||
| 05 | 23:55 | S 9 | 11.27 | Partly Cloudy | SCT012 | 23.7 | 22.2 | 91% | 75.74 | 0.0 | |||||||
| 05 | 23:35 | S 11 | 11.27 | Mostly Cloudy | BKN012 | 23.9 | 22.1 | 90% | 23 | 75.74 | 0.0 | ||||||
| 05 | 23:15 | S 11 | 11.27 | Overcast | OVC012 | 24.1 | 22.2 | 89% | 24 | 75.74 | 0.0 | ||||||
| 05 | 22:55 | S 9 | 11.27 | Mostly Cloudy | BKN012 | 24.2 | 22.2 | 89% | 24 | 75.72 | 0.0 | ||||||
| 05 | 22:35 | S 11 | 11.27 | Partly Cloudy | SCT012 | 24.3 | 22.2 | 88% | 24 | 75.72 | 0.0 | ||||||
| 05 | 22:15 | S 11 | 16.09 | Fair | CLR | 24.5 | 22.1 | 87% | 25 | 75.69 | 0.0 | ||||||
| 05 | 21:55 | S 11 | 16.09 | Fair | CLR | 24.7 | 22 | 85% | 25 | 75.67 | 0.0 | ||||||
| 05 | 21:35 | S 15 | 16.09 | Fair | CLR | 25 | 22 | 83% | 26 | 75.67 | 0.0 | ||||||
| 05 | 21:15 | S 9 | 16.09 | Mostly Cloudy | BKN041 | 25.3 | 22 | 82% | 26 | 75.64 | 0.0 | ||||||
| 05 | 20:55 | S 7 | 16.09 | Overcast | SCT026 SCT035 OVC041 | 25.6 | 22 | 81% | 27 | 75.64 | 0.0 | ||||||
| 05 | 20:35 | S 11 | 16.09 | Overcast | BKN028 OVC037 | 25.9 | 21.9 | 79% | 27 | 75.62 | 0.0 | ||||||
| 05 | 20:15 | S 7 | 16.09 | Mostly Cloudy | SCT026 BKN033 | 26 | 22 | 79% | 28 | 75.62 | 0.0 | ||||||
| 05 | 19:55 | SE 11 | 16.09 | Partly Cloudy | SCT024 | 26.2 | 22 | 78% | 28 | 75.57 | 0.0 | ||||||
| 05 | 19:35 | S 9 | 16.09 | Partly Cloudy | SCT042 | 26.7 | 22 | 75% | 29 | 75.54 | 0.0 | ||||||
| 05 | 19:15 | S 7 | 16.09 | Partly Cloudy | SCT042 | 27.1 | 22 | 74% | 29 | 75.54 | 0.0 | ||||||
| 05 | 18:55 | S 13 | 16.09 | Mostly Cloudy | SCT028 BKN044 | 27.5 | 21.9 | 29.5 | 25.7 | 72% | 30 | 75.54 | 0.0 | ||||
| 05 | 18:35 | S 15 | 16.09 | Overcast | SCT028 SCT038 OVC044 | 28 | 22 | 70% | 31 | 75.54 | 0.0 | ||||||
| 05 | 18:15 | S 13 | 16.09 | Overcast | SCT030 OVC042 | 28 | 22.1 | 70% | 31 | 75.54 | 0.0 | ||||||
| 05 | 17:55 | S 11 | 16.09 | Overcast | BKN030 BKN035 OVC040 | 28 | 22.1 | 70% | 31 | 75.54 | 0.0 | ||||||
| 05 | 17:35 | S 11 | 16.09 | Overcast | BKN032 OVC038 | 28.5 | 22.1 | 68% | 31 | 75.54 | 0.0 | ||||||
| 05 | 17:15 | S 17 G 28 | 16.09 | Overcast | BKN032 OVC038 | 28.7 | 21.7 | 66% | 31 | 75.54 | 0.0 | ||||||
| 05 | 16:55 | S 19 | 16.09 | Overcast | BKN032 OVC038 | 29.1 | 21.7 | 64% | 32 | 75.54 | 0.0 | ||||||
| 05 | 16:35 | S 17 G 28 | 16.09 | Mostly Cloudy | BKN032 | 28.8 | 21.7 | 66% | 32 | 75.57 | 0.0 | ||||||
| 05 | 16:15 | S 19 G 28 | 16.09 | Mostly Cloudy | BKN032 | 29.2 | 21.6 | 64% | 32 | 75.57 | 0.0 | ||||||
| 05 | 15:55 | S 17 G 26 | 16.09 | Overcast | BKN030 OVC035 | 28.6 | 21.6 | 66% | 31 | 75.62 | 0.0 | ||||||
| 05 | 15:35 | SW 20 G 30 | 16.09 | Mostly Cloudy | BKN030 BKN035 | 29.5 | 21.8 | 63% | 33 | 75.64 | 0.0 | ||||||
| 05 | 15:15 | SW 17 G 31 | 16.09 | Mostly Cloudy | SCT028 BKN034 | 28.9 | 21.6 | 65% | 32 | 75.64 | 0.0 | ||||||
| 05 | 14:35 | S 19 | 16.09 | Overcast | BKN024 OVC032 | 27.4 | 21.4 | 70% | 30 | 75.69 | 0.0 | ||||||
| 05 | 14:15 | SW 19 G 28 | 16.09 | Overcast | BKN022 BKN027 OVC032 | 27 | 21.5 | 72% | 29 | 75.72 | 0.0 | ||||||
| 05 | 13:55 | SW 19 G 28 | 16.09 | Overcast | BKN019 OVC026 | 26.2 | 21.4 | 75% | 28 | 75.74 | 0.0 | ||||||
| 05 | 13:35 | S 17 G 28 | 16.09 | Overcast | BKN019 OVC026 | 26 | 21.4 | 76% | 28 | 75.74 | 0.0 | ||||||
| 05 | 13:15 | SW 19 G 26 | 16.09 | Overcast | BKN021 OVC028 | 26.1 | 21.3 | 75% | 28 | 75.74 | 0.0 | ||||||
| 05 | 12:55 | SW 13 G 30 | 16.09 | Overcast | BKN020 OVC026 | 25.9 | 21.1 | 26.1 | 21.4 | 75% | 27 | 75.77 | 0.0 | ||||
| 05 | 12:35 | SW 20 G 31 | 16.09 | Overcast | BKN018 OVC024 | 25.8 | 21.2 | 76% | 27 | 75.77 | 0.0 | ||||||
| 05 | 12:15 | S 24 G 35 | 16.09 | Overcast | BKN016 OVC024 | 25.6 | 21.1 | 76% | 27 | 75.77 | 0.0 | ||||||
| 05 | 11:55 | S 19 G 30 | 16.09 | Overcast | BKN016 OVC024 | 25 | 21.1 | 79% | 26 | 75.79 | 0.0 | ||||||
| 05 | 11:35 | SW 17 G 30 | 16.09 | Overcast | OVC016 | 24.4 | 21 | 81% | 25 | 75.79 | 0.0 | ||||||
| 05 | 11:15 | SW 11 G 30 | 16.09 | Overcast | OVC016 | 24.6 | 20.9 | 80% | 25 | 75.79 | 0.0 | ||||||
| 05 | 10:55 | SW 19 G 30 | 16.09 | Overcast | OVC014 | 24.3 | 21 | 82% | 25 | 75.79 | 0.0 | ||||||
| 05 | 10:35 | S 13 | 16.09 | Overcast | OVC012 | 24 | 21 | 83% | 24 | 75.77 | 0.0 | ||||||
| 05 | 10:15 | S 13 | 16.09 | Overcast | OVC010 | 23.2 | 20.8 | 86% | 75.77 | 0.0 | |||||||
| 05 | 09:55 | SW 15 G 26 | 16.09 | Overcast | OVC010 | 23 | 20.7 | 87% | 75.77 | 0.0 | |||||||
| 05 | 09:35 | S 19 G 28 | 16.09 | Overcast | OVC008 | 22.7 | 20.7 | 89% | 75.77 | 0.0 | |||||||
| 05 | 09:15 | S 19 | 16.09 | Overcast | OVC008 | 22.2 | 20.6 | 91% | 75.74 | 0.0 | |||||||
| 05 | 08:55 | S 17 | 6.44 | Fog/Mist | OVC008 | 21.9 | 20.6 | 92% | 75.74 | 0.0 | |||||||
| 05 | 08:35 | SW 15 | 6.44 | Fog/Mist | OVC008 | 21.9 | 20.5 | 92% | 75.74 | 0.0 | |||||||
| 05 | 08:15 | S 15 G 30 | 11.27 | Overcast | OVC010 | 22 | 20.2 | 90% | 75.72 | 0.0 | |||||||
| 05 | 07:55 | S 17 G 30 | 11.27 | Overcast | BKN010 OVC013 | 21.9 | 20 | 89% | 75.72 | 0.0 | |||||||
| 05 | 07:35 | S 15 G 28 | 16.09 | Overcast | OVC013 | 21.7 | 20 | 90% | 75.72 | 0.0 | |||||||
| 05 | 07:15 | S 15 | 16.09 | Overcast | OVC013 | 21.5 | 19.8 | 90% | 75.69 | 0.0 | |||||||
| 05 | 06:55 | S 15 | 16.09 | Overcast | OVC011 | 21.4 | 19.7 | 21.5 | 20.8 | 90% | 75.69 | 0.0 | |||||
| 05 | 06:35 | S 15 | 16.09 | Overcast | OVC011 | 21.3 | 19.6 | 90% | 75.69 | 0.0 | |||||||
| 05 | 06:15 | S 11 | 16.09 | Overcast | BKN013 OVC020 | 21.2 | 19.5 | 90% | 75.69 | 0.0 | |||||||
| 05 | 05:55 | S 15 | 16.09 | Overcast | OVC015 | 21.1 | 19.5 | 91% | 75.69 | 0.0 | |||||||
| 05 | 05:35 | SW 15 | 16.09 | Overcast | BKN015 OVC020 | 21.1 | 19.3 | 90% | 75.69 | 0.0 | |||||||
| 05 | 05:15 | S 17 | 16.09 | Overcast | OVC015 | 21.3 | 19.3 | 88% | 75.69 | 0.0 | |||||||
| 05 | 04:55 | S 20 G 31 | 16.09 | Overcast | BKN013 OVC018 | 21.3 | 19.3 | 88% | 75.69 | 0.0 | |||||||
| 05 | 04:35 | SW 17 G 26 | 16.09 | Overcast | OVC013 | 21.3 | 19.2 | 88% | 75.72 | 0.0 | |||||||
| 05 | 04:15 | S 19 G 33 | 16.09 | Overcast | OVC013 | 21.3 | 19.1 | 87% | 75.69 | 0.0 | |||||||
| 05 | 03:55 | S 17 G 33 | 16.09 | Overcast | OVC013 | 21.5 | 19.1 | 86% | 75.72 | 0.0 | |||||||
| 05 | 03:35 | S 22 | 16.09 | Overcast | OVC013 | 21.5 | 19.1 | 86% | 75.72 | 0.0 | |||||||
| 05 | 03:15 | S 17 G 31 | 16.09 | Overcast | OVC013 | 21.3 | 19.1 | 87% | 75.74 | 0.0 | |||||||
| 05 | 02:55 | S 17 G 30 | 16.09 | Overcast | OVC013 | 21.1 | 19 | 88% | 75.74 | 0.0 | |||||||
| 05 | 02:35 | S 17 G 26 | 16.09 | Overcast | OVC013 | 21 | 19 | 88% | 75.77 | 0.0 | |||||||
| 05 | 02:15 | S 15 G 26 | 16.09 | Overcast | OVC013 | 21 | 19 | 88% | 75.79 | 0.0 | |||||||
| 05 | 01:55 | S 17 G 28 | 16.09 | Overcast | OVC013 | 21 | 18.9 | 88% | 75.82 | 0.0 | |||||||
| 05 | 01:35 | S 17 | 16.09 | Overcast | OVC013 | 21 | 18.8 | 87% | 75.82 | 0.0 | |||||||
| 05 | 01:15 | S 17 | 16.09 | Overcast | OVC013 | 20.8 | 18.6 | 87% | 75.82 | 0.0 | |||||||
| 05 | 00:55 | S 17 | 16.09 | Overcast | OVC013 | 20.8 | 18.5 | 26 | 20.8 | 87% | 75.82 | 0.0 | |||||
| 05 | 00:35 | S 17 G 26 | 16.09 | Mostly Cloudy | BKN013 | 20.8 | 18.5 | 87% | 75.82 | 0.0 | |||||||
| 05 | 00:15 | S 19 G 28 | 16.09 | Partly Cloudy | SCT015 | 20.8 | 18.5 | 87% | 75.82 | 0.0 | |||||||
| 04 | 23:55 | S 13 | 16.09 | Fair | CLR | 21 | 18.3 | 85% | 75.82 | 0.0 | |||||||
| 04 | 23:35 | S 15 G 26 | 16.09 | Fair | CLR | 21.1 | 18.3 | 84% | 75.84 | 0.0 | |||||||
| 04 | 23:15 | S 19 G 26 | 16.09 | Fair | CLR | 21.3 | 18.3 | 83% | 75.84 | 0.0 | |||||||
| 04 | 22:55 | S 13 | 16.09 | Fair | CLR | 21.5 | 18.3 | 82% | 75.84 | 0.0 | |||||||
| 04 | 22:35 | S 13 | 16.09 | Fair | CLR | 21.8 | 18.4 | 81% | 75.87 | 0.0 | |||||||
| 04 | 22:15 | S 13 | 16.09 | Fair | CLR | 22 | 18.5 | 81% | 75.87 | 0.0 | |||||||
| 04 | 21:55 | S 13 | 16.09 | Fair | CLR | 22.2 | 18.5 | 80% | 75.84 | 0.0 | |||||||
| 04 | 21:35 | S 13 | 16.09 | Fair | CLR | 22.5 | 18.5 | 78% | 75.82 | 0.0 | |||||||
| 04 | 21:15 | S 13 | 16.09 | Fair | CLR | 22.7 | 18.5 | 77% | 75.82 | 0.0 | |||||||
| 04 | 20:55 | S 11 | 16.09 | Fair | CLR | 22.9 | 18.3 | 75% | 75.82 | 0.0 | |||||||
| 04 | 20:35 | S 7 | 16.09 | Fair | CLR | 23.3 | 18.1 | 73% | 75.82 | 0.0 | |||||||
| 04 | 20:15 | S 13 | 16.09 | Fair | CLR | 24.1 | 18 | 69% | 25 | 75.79 | 0.0 | ||||||
| 04 | 19:55 | S 17 | 16.09 | Fair | CLR | 24.5 | 17.9 | 67% | 25 | 75.77 | 0.0 | ||||||
| 04 | 19:35 | S 13 | 16.09 | Fair | CLR | 25.1 | 17.8 | 64% | 26 | 75.79 | 0.0 | ||||||
| 04 | 19:15 | S 22 G 28 | 16.09 | Partly Cloudy | SCT037 SCT047 | 25.7 | 17.8 | 62% | 27 | 75.79 | 0.0 | ||||||
| 04 | 18:55 | S 17 G 28 | 16.09 | Overcast | SCT039 OVC047 | 26 | 18 | 27.7 | 24.5 | 61% | 27 | 75.82 | 0.0 | ||||
| 04 | 18:35 | S 20 G 30 | 16.09 | Overcast | BKN039 OVC047 | 26.2 | 17.8 | 60% | 27 | 75.82 | 0.0 | ||||||
| 04 | 18:15 | S 15 | 16.09 | Overcast | SCT041 OVC047 | 26.7 | 17.9 | 59% | 28 | 75.82 | 0.0 | ||||||
| 04 | 17:55 | S 20 G 31 | 16.09 | Mostly Cloudy | BKN047 | 26.7 | 17.4 | 57% | 28 | 75.84 | 0.0 | ||||||
| 04 | 17:35 | S 17 G 28 | 16.09 | Mostly Cloudy | SCT041 BKN047 | 27.3 | 17.4 | 55% | 28 | 75.84 | 0.0 | ||||||
| 04 | 17:15 | S 17 | 16.09 | Overcast | OVC045 | 27.7 | 17.2 | 53% | 28 | 75.84 | 0.0 | ||||||
| 04 | 16:55 | SW 17 G 28 | 16.09 | Mostly Cloudy | BKN047 | 27.2 | 17 | 54% | 28 | 75.87 | 0.0 | ||||||
| 04 | 16:35 | S 17 G 30 | 16.09 | Mostly Cloudy | BKN045 | 27.3 | 16.7 | 52% | 28 | 75.87 | 0.0 | ||||||
| 04 | 16:15 | S 11 | 16.09 | Mostly Cloudy | BKN047 | 26.8 | 17 | 55% | 28 | 75.92 | 0.0 | ||||||
| 04 | 15:55 | S 13 | 11.27 | Overcast | OVC047 | 26.6 | 16.6 | 54% | 27 | 75.95 | 0.0 | ||||||
| 04 | 15:35 | S 20 G 28 | 16.09 | Overcast | OVC045 | 26.8 | 16.4 | 53% | 27 | 75.97 | 0.0 | ||||||
| 04 | 15:15 | S 17 | 16.09 | Overcast | OVC043 | 27.2 | 16.9 | 53% | 28 | 76 | 0.0 | ||||||
| 04 | 14:55 | S 15 | 16.09 | Mostly Cloudy | BKN041 | 27 | 16.9 | 54% | 28 | 76.02 | 0.0 | ||||||
| 04 | 14:35 | SW 13 | 16.09 | Mostly Cloudy | BKN039 | 27.3 | 17.3 | 54% | 28 | 76.05 | 0.0 | ||||||
| 04 | 14:15 | S 15 | 16.09 | Mostly Cloudy | BKN039 | 26.1 | 16.6 | 56% | 27 | 76.05 | 0.0 | ||||||
| Date | Time (cdt) | Wind (kph) | Vis. (km) | Weather | Sky Cond. | Air | Dwpt | Max. | Min. | Relative Humidity | Wind Chill (°C) | Heat Index (°C) | altimeter (cm) | sea level (mb) | 1 hr | 3 hr | 6 hr |
| 6 hour | |||||||||||||||||
| Temperature (ºC) | Pressure | Precipitation (cm) | |||||||||||||||